createdAt,value
2023-03-16T00:01:08.684Z,0.79
2023-03-16T00:03:36.501Z,0.82
2023-03-16T00:06:03.740Z,0.84
2023-03-16T00:08:30.335Z,0.77
2023-03-16T00:10:57.233Z,0.78
2023-03-16T00:13:24.849Z,0.71
2023-03-16T00:15:55.683Z,0.65
2023-03-16T00:18:27.213Z,0.63
2023-03-16T00:20:58.909Z,0.63
2023-03-16T00:23:29.310Z,0.54
2023-03-16T00:25:59.787Z,0.58
2023-03-16T00:28:27.917Z,0.54
2023-03-16T00:30:59.197Z,0.54
2023-03-16T00:33:26.859Z,0.56
2023-03-16T00:36:02.130Z,0.61
2023-03-16T00:38:32.171Z,0.67
2023-03-16T00:40:58.952Z,0.66
2023-03-16T00:43:27.233Z,0.65
2023-03-16T00:46:06.929Z,0.52
2023-03-16T00:48:35.247Z,0.51
2023-03-16T00:51:07.892Z,0.42
2023-03-16T00:53:36.161Z,0.34
2023-03-16T00:56:04.489Z,0.33
2023-03-16T00:58:36.065Z,0.32
2023-03-16T01:01:04.791Z,0.34
2023-03-16T01:03:32.471Z,0.36
2023-03-16T01:06:04.600Z,0.44
2023-03-16T01:08:33.080Z,0.48
2023-03-16T01:11:06.213Z,0.51
2023-03-16T01:13:33.010Z,0.58
2023-03-16T01:16:00.434Z,0.66
2023-03-16T01:18:28.387Z,0.75
2023-03-16T01:20:54.989Z,0.80
2023-03-16T01:23:23.087Z,0.91
2023-03-16T01:25:58.609Z,0.93
2023-03-16T01:28:28.309Z,0.99
2023-03-16T01:31:04.157Z,1.02
2023-03-16T01:33:33.650Z,1.03
2023-03-16T01:36:04.170Z,1.02
2023-03-16T01:38:39.666Z,1.00
2023-03-16T01:41:07.582Z,1.04
2023-03-16T01:43:37.521Z,1.06
2023-03-16T01:46:07.275Z,1.07
2023-03-16T01:48:45.657Z,1.12
2023-03-16T01:51:21.286Z,1.10
2023-03-16T01:53:53.012Z,1.08
2023-03-16T01:56:25.745Z,1.08
2023-03-16T01:58:58.664Z,1.07
2023-03-16T02:01:29.196Z,1.05
2023-03-16T02:04:29.262Z,1.03
2023-03-16T02:07:00.404Z,1.07
2023-03-16T02:09:29.750Z,1.15
2023-03-16T02:11:57.175Z,1.10
2023-03-16T02:14:25.600Z,1.04
2023-03-16T02:16:52.800Z,0.98
2023-03-16T02:19:35.580Z,0.93
2023-03-16T02:22:06.607Z,0.92
2023-03-16T02:24:34.735Z,0.91
2023-03-16T02:27:06.586Z,0.92
2023-03-16T02:29:44.942Z,0.90
2023-03-16T02:32:13.716Z,0.88
2023-03-16T02:34:42.112Z,0.81
2023-03-16T02:37:10.371Z,0.80
2023-03-16T02:39:36.990Z,0.78
2023-03-16T02:42:04.957Z,0.80
2023-03-16T02:44:35.209Z,0.81
2023-03-16T02:47:11.367Z,0.83
2023-03-16T02:49:41.424Z,0.89
2023-03-16T02:52:08.944Z,0.87
2023-03-16T02:54:35.864Z,0.91
2023-03-16T02:57:02.924Z,0.97
2023-03-16T02:59:31.292Z,1.01
2023-03-16T03:02:04.203Z,1.00
2023-03-16T03:04:33.076Z,0.98
2023-03-16T03:07:04.739Z,0.95
2023-03-16T03:09:35.863Z,0.94
2023-03-16T03:12:02.681Z,0.94
2023-03-16T03:14:29.533Z,0.93
2023-03-16T03:16:57.216Z,0.92
2023-03-16T03:19:24.249Z,0.92
2023-03-16T03:21:51.030Z,0.96
2023-03-16T03:24:18.751Z,0.98
2023-03-16T03:26:47.132Z,0.99
2023-03-16T03:29:19.614Z,0.99
2023-03-16T03:31:46.271Z,0.98
2023-03-16T03:34:13.762Z,0.97
2023-03-16T03:36:41.511Z,0.99
2023-03-16T03:39:08.200Z,0.96
2023-03-16T03:41:36.141Z,0.96
2023-03-16T03:44:04.489Z,0.94
2023-03-16T03:46:31.502Z,0.91
2023-03-16T03:49:03.626Z,0.94
2023-03-16T03:51:33.153Z,0.90
2023-03-16T03:54:09.581Z,0.92
2023-03-16T03:56:45.547Z,0.91
2023-03-16T03:59:15.437Z,0.92
2023-03-16T04:02:03.266Z,0.95
2023-03-16T04:04:57.666Z,0.95
2023-03-16T04:07:24.286Z,0.93
2023-03-16T04:09:54.461Z,0.93
2023-03-16T04:12:29.032Z,0.93
2023-03-16T04:14:56.274Z,0.93
2023-03-16T04:17:24.261Z,0.93
2023-03-16T04:19:52.094Z,0.97
2023-03-16T04:22:19.215Z,0.95
2023-03-16T04:24:47.631Z,0.94
2023-03-16T04:27:14.465Z,0.99
2023-03-16T04:29:41.199Z,0.98
2023-03-16T04:32:08.132Z,0.92
2023-03-16T04:34:35.965Z,0.91
2023-03-16T04:37:05.598Z,0.96
2023-03-16T04:39:34.612Z,0.96
2023-03-16T04:42:01.745Z,0.94
2023-03-16T04:44:28.519Z,0.94
2023-03-16T04:46:55.829Z,0.97
2023-03-16T04:49:24.846Z,0.97
2023-03-16T04:51:51.481Z,0.91
2023-03-16T04:54:19.672Z,0.94
2023-03-16T04:56:46.335Z,0.93
2023-03-16T04:59:27.574Z,0.92
2023-03-16T05:02:05.454Z,0.94
2023-03-16T05:04:34.497Z,0.96
2023-03-16T05:07:02.204Z,0.96
2023-03-16T05:09:33.751Z,0.95
2023-03-16T05:12:00.738Z,0.95
2023-03-16T05:14:27.520Z,0.95
2023-03-16T05:17:33.134Z,0.92
2023-03-16T05:19:59.774Z,0.94
2023-03-16T05:22:27.443Z,0.93
2023-03-16T05:25:15.143Z,0.93
2023-03-16T05:27:46.510Z,0.92
2023-03-16T05:30:20.030Z,0.90
2023-03-16T05:32:47.278Z,0.89
2023-03-16T05:35:14.341Z,0.88
2023-03-16T05:37:42.077Z,0.88
2023-03-16T05:40:17.814Z,0.87
2023-03-16T05:42:55.552Z,0.88
2023-03-16T05:45:24.227Z,0.85
2023-03-16T05:48:05.720Z,0.87
2023-03-16T05:50:35.169Z,0.94
2023-03-16T05:53:01.854Z,0.90
2023-03-16T05:55:29.384Z,0.98
2023-03-16T05:57:59.930Z,1.04
2023-03-16T06:00:27.804Z,1.05
2023-03-16T06:03:05.912Z,1.09
2023-03-16T06:05:35.287Z,1.14
2023-03-16T06:08:03.066Z,1.21
2023-03-16T06:10:30.680Z,1.32
2023-03-16T06:12:58.996Z,1.44
2023-03-16T06:15:26.797Z,1.46
2023-03-16T06:17:54.742Z,1.57
2023-03-16T06:20:21.930Z,1.62
2023-03-16T06:22:48.849Z,1.62
2023-03-16T06:25:16.798Z,1.60
2023-03-16T06:27:45.775Z,1.63
2023-03-16T06:30:16.874Z,1.64
2023-03-16T06:32:45.721Z,1.70
2023-03-16T06:35:13.196Z,1.78
2023-03-16T06:37:45.128Z,1.87
2023-03-16T06:40:32.001Z,1.97
2023-03-16T06:42:58.759Z,2.05
2023-03-16T06:45:25.748Z,2.15
2023-03-16T06:47:54.645Z,2.25
2023-03-16T06:50:21.262Z,2.22
2023-03-16T06:52:47.918Z,2.34
2023-03-16T06:55:14.815Z,2.35
2023-03-16T06:57:45.175Z,2.51
2023-03-16T07:00:15.420Z,2.54
2023-03-16T07:02:43.566Z,2.59
2023-03-16T07:05:20.737Z,2.69
2023-03-16T07:07:48.044Z,2.79
2023-03-16T07:10:17.577Z,2.81
2023-03-16T07:12:44.886Z,2.87
2023-03-16T07:15:12.771Z,2.86
2023-03-16T07:17:40.219Z,2.81
2023-03-16T07:20:10.745Z,2.75
2023-03-16T07:22:39.543Z,2.78
2023-03-16T07:25:09.014Z,2.83
2023-03-16T07:27:35.633Z,2.95
2023-03-16T07:30:06.105Z,3.15
2023-03-16T07:32:36.791Z,3.28
2023-03-16T07:35:04.166Z,3.57
2023-03-16T07:37:32.409Z,3.74
2023-03-16T07:40:00.846Z,3.87
2023-03-16T07:42:27.637Z,4.05
2023-03-16T07:45:08.276Z,4.33
2023-03-16T07:47:35.252Z,4.47
2023-03-16T07:50:11.486Z,4.39
2023-03-16T07:52:41.815Z,4.39
2023-03-16T07:55:10.377Z,4.36
2023-03-16T07:57:37.017Z,4.58
2023-03-16T08:00:05.295Z,4.60
2023-03-16T08:02:39.977Z,4.52
2023-03-16T08:05:18.345Z,4.72
2023-03-16T08:07:49.155Z,5.05
2023-03-16T08:10:20.033Z,5.12
2023-03-16T08:12:53.947Z,5.29
2023-03-16T08:15:21.742Z,5.27
2023-03-16T08:17:50.754Z,5.32
2023-03-16T08:20:22.755Z,5.17
2023-03-16T08:22:49.648Z,4.90
2023-03-16T08:25:19.993Z,4.81
2023-03-16T08:27:58.813Z,5.09
2023-03-16T08:30:26.906Z,5.24
2023-03-16T08:33:10.525Z,5.43
2023-03-16T08:35:37.171Z,5.60
2023-03-16T08:38:03.796Z,5.64
2023-03-16T08:40:30.810Z,5.73
2023-03-16T08:42:58.938Z,5.87
2023-03-16T08:45:25.945Z,5.94
2023-03-16T08:47:53.771Z,5.99
2023-03-16T08:50:20.872Z,6.26
2023-03-16T08:52:49.116Z,6.34
2023-03-16T08:55:16.255Z,6.51
2023-03-16T08:57:45.151Z,6.54
2023-03-16T09:00:14.064Z,6.72
2023-03-16T09:02:53.260Z,6.55
2023-03-16T09:05:19.813Z,6.45
2023-03-16T09:07:48.883Z,6.63
2023-03-16T09:10:16.427Z,6.44
2023-03-16T09:12:43.828Z,6.41
2023-03-16T09:15:12.280Z,6.79
2023-03-16T09:17:39.860Z,6.77
2023-03-16T09:20:21.943Z,6.94
2023-03-16T09:22:49.223Z,7.06
2023-03-16T09:25:16.125Z,7.27
2023-03-16T09:27:42.819Z,7.47
2023-03-16T09:30:10.429Z,7.51
2023-03-16T09:32:37.525Z,7.78
2023-03-16T09:35:06.317Z,7.87
2023-03-16T09:37:44.761Z,8.15
2023-03-16T09:40:21.754Z,8.24
2023-03-16T09:43:13.240Z,7.97
2023-03-16T09:45:53.644Z,8.21
2023-03-16T09:48:21.484Z,7.75
2023-03-16T09:50:49.840Z,7.59
2023-03-16T09:53:27.833Z,7.87
2023-03-16T09:56:01.934Z,7.92
2023-03-16T09:58:28.545Z,7.96
2023-03-16T10:01:03.487Z,8.28
2023-03-16T10:04:01.877Z,8.52
2023-03-16T10:06:28.898Z,8.76
2023-03-16T10:09:15.371Z,8.91
2023-03-16T10:11:46.386Z,9.04
2023-03-16T10:14:23.680Z,8.88
2023-03-16T10:16:56.824Z,8.59
2023-03-16T10:19:39.270Z,8.38
2023-03-16T10:22:19.806Z,8.58
2023-03-16T10:25:20.675Z,8.60
2023-03-16T10:27:48.210Z,8.73
2023-03-16T10:30:28.695Z,8.70
2023-03-16T10:33:00.528Z,8.68
2023-03-16T10:35:30.735Z,8.47
2023-03-16T10:37:58.655Z,8.72
2023-03-16T10:40:26.400Z,8.68
2023-03-16T10:42:53.883Z,8.46
2023-03-16T10:45:27.417Z,8.22
2023-03-16T10:48:04.891Z,8.54
2023-03-16T10:50:32.825Z,8.50
2023-03-16T10:53:01.567Z,8.55
2023-03-16T10:55:40.878Z,8.54
2023-03-16T10:58:09.320Z,8.58
2023-03-16T11:00:42.120Z,8.86
2023-03-16T11:03:32.470Z,8.71
2023-03-16T11:06:05.473Z,9.29
2023-03-16T11:08:34.931Z,9.13
2023-03-16T11:11:10.019Z,9.13
2023-03-16T11:13:39.236Z,9.29
2023-03-16T11:16:14.592Z,9.29
2023-03-16T11:18:45.109Z,9.45
2023-03-16T11:21:22.370Z,9.80
2023-03-16T11:23:55.157Z,10.15
2023-03-16T11:26:33.437Z,10.04
2023-03-16T11:29:17.817Z,9.93
2023-03-16T11:31:51.037Z,9.41
2023-03-16T11:34:21.746Z,9.53
2023-03-16T11:36:56.030Z,9.98
2023-03-16T11:39:57.616Z,9.20
2023-03-16T11:42:39.440Z,8.84
2023-03-16T11:45:15.332Z,8.65
2023-03-16T11:48:01.387Z,8.60
2023-03-16T11:50:49.845Z,8.33
2023-03-16T11:53:38.453Z,8.58
2023-03-16T11:56:38.932Z,8.55
2023-03-16T11:59:14.343Z,8.69
2023-03-16T12:02:06.413Z,8.84
2023-03-16T12:04:51.121Z,8.34
2023-03-16T12:07:43.720Z,8.50
2023-03-16T12:10:26.614Z,8.44
2023-03-16T12:13:08.613Z,8.75
2023-03-16T12:15:42.555Z,8.88
2023-03-16T12:18:18.254Z,8.85
2023-03-16T12:20:53.941Z,9.01
2023-03-16T12:23:28.938Z,8.89
2023-03-16T12:25:59.951Z,9.11
2023-03-16T12:28:29.252Z,9.31
2023-03-16T12:31:03.422Z,9.66
2023-03-16T12:33:48.572Z,9.32
2023-03-16T12:36:34.225Z,8.95
2023-03-16T12:39:13.709Z,8.95
2023-03-16T12:42:26.150Z,9.23
2023-03-16T12:45:13.054Z,9.23
2023-03-16T12:48:18.605Z,9.24
2023-03-16T12:50:55.192Z,9.34
2023-03-16T12:53:27.082Z,9.54
2023-03-16T12:55:53.981Z,9.70
2023-03-16T12:58:24.026Z,9.68
2023-03-16T13:01:00.124Z,9.76
2023-03-16T13:03:28.498Z,9.89
2023-03-16T13:05:59.510Z,9.87
2023-03-16T13:08:28.937Z,9.66
2023-03-16T13:11:06.174Z,9.62
2023-03-16T13:13:34.179Z,9.27
2023-03-16T13:16:10.279Z,9.89
2023-03-16T13:18:44.617Z,9.97
2023-03-16T13:21:21.500Z,9.65
2023-03-16T13:24:14.728Z,9.77
2023-03-16T13:26:45.404Z,10.19
2023-03-16T13:29:27.414Z,10.42
2023-03-16T13:31:59.222Z,10.27
2023-03-16T13:34:37.586Z,10.14
2023-03-16T13:37:04.534Z,10.45
2023-03-16T13:39:33.696Z,10.32
2023-03-16T13:42:17.924Z,10.44
2023-03-16T13:44:45.716Z,10.21
2023-03-16T13:47:14.842Z,10.19
2023-03-16T13:49:55.767Z,9.82
2023-03-16T13:52:34.399Z,9.73
2023-03-16T13:55:15.584Z,10.05
2023-03-16T13:57:44.254Z,9.74
2023-03-16T14:00:22.058Z,10.00
2023-03-16T14:03:17.853Z,9.88
2023-03-16T14:05:45.416Z,9.81
2023-03-16T14:08:18.121Z,9.51
2023-03-16T14:10:45.615Z,9.44
2023-03-16T14:13:32.595Z,9.41
2023-03-16T14:16:02.844Z,9.85
2023-03-16T14:18:36.211Z,9.76
2023-03-16T14:21:09.811Z,9.59
2023-03-16T14:23:47.691Z,9.38
2023-03-16T14:26:18.761Z,9.34
2023-03-16T14:29:04.553Z,9.07
2023-03-16T14:31:36.629Z,9.20
2023-03-16T14:34:19.945Z,9.44
2023-03-16T14:36:46.955Z,9.60
2023-03-16T14:39:17.321Z,9.59
2023-03-16T14:41:45.263Z,9.28
2023-03-16T14:44:24.853Z,9.07
2023-03-16T14:46:54.149Z,9.14
2023-03-16T14:49:37.392Z,9.27
2023-03-16T14:52:25.519Z,9.51
2023-03-16T14:54:52.334Z,9.16
2023-03-16T14:57:19.597Z,9.34
2023-03-16T14:59:46.737Z,9.39
2023-03-16T15:02:38.589Z,9.25
2023-03-16T15:05:23.895Z,8.99
2023-03-16T15:07:54.926Z,9.15
2023-03-16T15:10:25.494Z,9.29
2023-03-16T15:13:04.100Z,9.57
2023-03-16T15:15:31.599Z,9.38
2023-03-16T15:17:59.261Z,9.38
2023-03-16T15:20:31.748Z,9.37
2023-03-16T15:22:59.907Z,9.28
2023-03-16T15:25:38.354Z,9.23
2023-03-16T15:28:22.685Z,9.23
2023-03-16T15:30:52.563Z,9.28
2023-03-16T15:33:19.731Z,9.37
2023-03-16T15:35:49.234Z,9.12
2023-03-16T15:38:20.510Z,8.84
2023-03-16T15:40:48.053Z,8.76
2023-03-16T15:43:18.257Z,8.88
2023-03-16T15:45:46.032Z,8.81
2023-03-16T15:48:13.264Z,8.72
2023-03-16T15:50:44.213Z,8.59
2023-03-16T15:53:30.617Z,8.53
2023-03-16T15:56:04.678Z,8.56
2023-03-16T15:58:34.062Z,8.36
2023-03-16T16:01:02.834Z,8.27
2023-03-16T16:03:30.183Z,8.25
2023-03-16T16:05:57.110Z,8.23
2023-03-16T16:08:23.777Z,8.25
2023-03-16T16:10:53.189Z,8.29
2023-03-16T16:13:31.187Z,8.23
2023-03-16T16:16:04.666Z,8.25
2023-03-16T16:18:36.517Z,8.25
2023-03-16T16:21:05.558Z,8.10
2023-03-16T16:23:32.988Z,8.04
2023-03-16T16:26:12.617Z,7.90
2023-03-16T16:28:39.310Z,7.77
2023-03-16T16:31:13.298Z,7.79
2023-03-16T16:33:40.251Z,7.74
2023-03-16T16:36:14.358Z,7.63
2023-03-16T16:38:41.488Z,7.65
2023-03-16T16:41:09.599Z,7.61
2023-03-16T16:43:46.946Z,7.62
2023-03-16T16:46:22.571Z,7.58
2023-03-16T16:49:01.817Z,7.56
2023-03-16T16:51:29.913Z,7.53
2023-03-16T16:53:58.480Z,7.42
2023-03-16T16:56:31.858Z,7.39
2023-03-16T16:59:01.652Z,7.29
2023-03-16T17:01:33.109Z,7.31
2023-03-16T17:04:01.324Z,7.24
2023-03-16T17:06:28.918Z,7.25
2023-03-16T17:08:55.597Z,7.16
2023-03-16T17:11:27.497Z,7.08
2023-03-16T17:13:56.989Z,7.06
2023-03-16T17:16:25.887Z,7.00
2023-03-16T17:18:53.030Z,6.94
2023-03-16T17:21:23.863Z,6.93
2023-03-16T17:23:52.761Z,6.88
2023-03-16T17:26:26.189Z,6.87
2023-03-16T17:28:58.907Z,6.83
2023-03-16T17:31:27.860Z,6.82
2023-03-16T17:33:56.993Z,6.83
2023-03-16T17:36:24.494Z,6.78
2023-03-16T17:38:51.178Z,6.77
2023-03-16T17:41:26.653Z,6.75
2023-03-16T17:43:55.755Z,6.69
2023-03-16T17:46:25.138Z,6.74
2023-03-16T17:48:52.997Z,6.69
2023-03-16T17:51:21.251Z,6.67
2023-03-16T17:53:48.586Z,6.62
2023-03-16T17:56:21.196Z,6.65
2023-03-16T17:58:51.337Z,6.68
2023-03-16T18:01:22.153Z,6.66
2023-03-16T18:03:49.583Z,6.62
2023-03-16T18:06:20.373Z,6.61
2023-03-16T18:08:48.531Z,6.55
2023-03-16T18:11:21.649Z,6.56
2023-03-16T18:13:50.850Z,6.60
2023-03-16T18:16:24.852Z,6.59
2023-03-16T18:18:53.580Z,6.63
2023-03-16T18:21:23.179Z,6.62
2023-03-16T18:23:50.470Z,6.58
2023-03-16T18:26:18.972Z,6.61
2023-03-16T18:28:46.540Z,6.66
2023-03-16T18:31:22.541Z,6.66
2023-03-16T18:33:55.811Z,6.70
2023-03-16T18:36:27.978Z,6.70
2023-03-16T18:38:55.953Z,6.71
2023-03-16T18:41:33.523Z,6.69
2023-03-16T18:44:05.690Z,6.64
2023-03-16T18:46:37.176Z,6.65
2023-03-16T18:49:18.002Z,6.63
2023-03-16T18:51:49.098Z,6.57
2023-03-16T18:54:45.444Z,6.63
2023-03-16T18:57:38.833Z,6.55
2023-03-16T19:00:06.088Z,6.57
2023-03-16T19:02:49.319Z,6.50
2023-03-16T19:05:19.391Z,6.56
2023-03-16T19:07:48.746Z,6.54
2023-03-16T19:10:27.469Z,6.53
2023-03-16T19:12:55.079Z,6.47
2023-03-16T19:15:28.404Z,6.49
2023-03-16T19:17:55.283Z,6.46
2023-03-16T19:20:28.415Z,6.54
2023-03-16T19:23:07.520Z,6.51
2023-03-16T19:25:39.783Z,6.51
2023-03-16T19:28:07.722Z,6.58
2023-03-16T19:30:35.846Z,6.53
2023-03-16T19:33:02.541Z,6.60
2023-03-16T19:35:48.606Z,6.57
2023-03-16T19:38:16.623Z,6.60
2023-03-16T19:40:43.762Z,6.55
2023-03-16T19:43:18.637Z,6.56
2023-03-16T19:45:47.258Z,6.51
2023-03-16T19:48:22.676Z,6.53
2023-03-16T19:50:51.034Z,6.56
2023-03-16T19:53:22.618Z,6.55
2023-03-16T19:55:52.213Z,6.50
2023-03-16T19:58:39.324Z,6.53
2023-03-16T20:01:13.122Z,6.49
2023-03-16T20:03:39.781Z,6.45
2023-03-16T20:06:08.610Z,6.43
2023-03-16T20:08:35.217Z,6.36
2023-03-16T20:11:07.585Z,6.28
2023-03-16T20:13:35.384Z,6.31
2023-03-16T20:16:03.465Z,6.40
2023-03-16T20:18:30.191Z,6.32
2023-03-16T20:20:57.199Z,6.31
2023-03-16T20:23:26.036Z,6.31
2023-03-16T20:26:03.047Z,6.36
2023-03-16T20:28:37.112Z,6.36
2023-03-16T20:31:08.145Z,6.31
2023-03-16T20:33:34.955Z,6.28
2023-03-16T20:36:01.858Z,6.26
2023-03-16T20:38:28.983Z,6.16
2023-03-16T20:40:56.027Z,6.18
2023-03-16T20:43:26.316Z,6.20
2023-03-16T20:45:55.519Z,6.23
2023-03-16T20:48:25.458Z,6.19
2023-03-16T20:50:53.414Z,6.20
2023-03-16T20:53:20.713Z,6.23
2023-03-16T20:55:48.740Z,6.22
2023-03-16T20:58:25.247Z,6.15
2023-03-16T21:00:55.782Z,6.20
2023-03-16T21:03:26.272Z,6.19
2023-03-16T21:05:54.484Z,6.15
2023-03-16T21:08:21.608Z,6.18
2023-03-16T21:10:51.198Z,6.14
2023-03-16T21:13:20.375Z,6.14
2023-03-16T21:15:50.035Z,6.12
2023-03-16T21:18:20.093Z,6.12
2023-03-16T21:20:48.929Z,6.12
2023-03-16T21:23:21.620Z,6.06
2023-03-16T21:26:00.618Z,6.05
2023-03-16T21:28:29.598Z,6.07
2023-03-16T21:30:57.982Z,6.05
2023-03-16T21:33:37.259Z,6.00
2023-03-16T21:36:08.169Z,5.94
2023-03-16T21:38:34.823Z,5.99
2023-03-16T21:41:01.712Z,5.95
2023-03-16T21:43:28.726Z,5.95
2023-03-16T21:45:56.983Z,6.02
2023-03-16T21:48:41.170Z,5.96
2023-03-16T21:51:16.741Z,5.89
2023-03-16T21:53:43.839Z,5.83
2023-03-16T21:56:15.416Z,5.83
2023-03-16T21:58:43.362Z,5.83
2023-03-16T22:02:00.738Z,5.84
2023-03-16T22:04:28.409Z,5.77
2023-03-16T22:06:55.275Z,5.80
2023-03-16T22:09:30.011Z,5.78
2023-03-16T22:11:56.835Z,5.77
2023-03-16T22:14:23.445Z,5.74
2023-03-16T22:16:50.401Z,5.74
2023-03-16T22:19:18.145Z,5.76
2023-03-16T22:21:45.110Z,5.78
2023-03-16T22:24:34.500Z,5.81
2023-03-16T22:27:01.537Z,5.84
2023-03-16T22:29:31.714Z,5.85
2023-03-16T22:32:04.346Z,5.91
2023-03-16T22:34:56.274Z,5.91
2023-03-16T22:37:27.143Z,5.91
2023-03-16T22:39:57.307Z,5.91
2023-03-16T22:42:32.788Z,5.92
2023-03-16T22:44:59.859Z,5.90
2023-03-16T22:47:28.851Z,5.87
2023-03-16T22:49:56.332Z,5.85
2023-03-16T22:52:28.166Z,5.84
2023-03-16T22:54:55.406Z,5.85
2023-03-16T22:57:22.847Z,5.84
2023-03-16T22:59:51.130Z,5.81
2023-03-16T23:02:30.700Z,5.87
2023-03-16T23:05:28.179Z,5.87
2023-03-16T23:07:56.233Z,5.86
2023-03-16T23:10:25.755Z,5.85
2023-03-16T23:12:54.025Z,5.87
2023-03-16T23:15:24.967Z,5.85
2023-03-16T23:17:52.542Z,5.82
2023-03-16T23:20:32.663Z,5.83
2023-03-16T23:22:59.819Z,5.76
2023-03-16T23:25:26.495Z,5.83
2023-03-16T23:27:53.369Z,5.85
2023-03-16T23:30:23.422Z,5.75
2023-03-16T23:32:52.276Z,5.69
2023-03-16T23:35:28.325Z,5.69
2023-03-16T23:37:55.773Z,5.77
2023-03-16T23:40:25.152Z,5.86
2023-03-16T23:42:53.984Z,5.93
2023-03-16T23:45:38.434Z,5.93
2023-03-16T23:48:07.692Z,5.90
2023-03-16T23:50:36.672Z,5.88
2023-03-16T23:53:03.734Z,5.91
2023-03-16T23:55:30.370Z,5.95
2023-03-16T23:57:57.043Z,5.97
